createdAt,value
2018-12-13T00:00:54.379Z,95543.4
2018-12-13T00:01:56.797Z,95538.8
2018-12-13T00:02:59.224Z,95540.3
2018-12-13T00:04:01.651Z,95539.2
2018-12-13T00:05:04.081Z,95535.9
2018-12-13T00:06:05.963Z,95532.5
2018-12-13T00:07:08.109Z,95532.2
2018-12-13T00:08:10.531Z,95529.9
2018-12-13T00:09:12.957Z,95531.4
2018-12-13T00:10:15.119Z,95530.6
2018-12-13T00:11:17.541Z,95526.4
2018-12-13T00:12:19.693Z,95523.3
2018-12-13T00:13:22.118Z,95525.5
2018-12-13T00:14:24.553Z,95519.4
2018-12-13T00:15:26.418Z,95524.1
2018-12-13T00:16:28.567Z,95520
2018-12-13T00:17:31.000Z,95520.5
2018-12-13T00:18:33.165Z,95520.5
2018-12-13T00:19:35.305Z,95516.3
2018-12-13T00:20:37.729Z,95519.8
2018-12-13T00:21:40.151Z,95518.1
2018-12-13T00:22:42.341Z,95515.8
2018-12-13T00:23:44.472Z,95519.3
2018-12-13T00:24:46.627Z,95513.8
2018-12-13T00:25:49.050Z,95512.6
2018-12-13T00:26:51.474Z,95515.3
2018-12-13T00:27:53.897Z,95515.6
2018-12-13T00:28:56.045Z,95512
2018-12-13T00:29:58.191Z,95506.5
2018-12-13T00:31:00.622Z,95506.6
2018-12-13T00:32:03.046Z,95503.3
2018-12-13T00:33:05.469Z,95506.5
2018-12-13T00:34:07.884Z,95506.7
2018-12-13T00:35:10.037Z,95506.2
2018-12-13T00:36:12.465Z,95503.6
2018-12-13T00:37:14.890Z,95504
2018-12-13T00:38:17.021Z,95496.7
2018-12-13T00:39:19.451Z,95506.5
2018-12-13T00:40:21.875Z,95501.2
2018-12-13T00:41:24.302Z,95503.9
2018-12-13T00:42:26.741Z,95503.8
2018-12-13T00:43:29.165Z,95501.6
2018-12-13T00:44:31.583Z,95500.1
2018-12-13T00:45:34.009Z,95499.6
2018-12-13T00:46:36.179Z,95497.4
2018-12-13T00:47:38.058Z,95501.1
2018-12-13T00:48:40.479Z,95501.7
2018-12-13T00:49:42.903Z,95495.9
2018-12-13T00:50:45.055Z,95497.7
2018-12-13T00:51:47.482Z,95497.8
2018-12-13T00:52:49.628Z,95493.8
2018-12-13T00:53:52.052Z,95492.3
2018-12-13T00:54:54.201Z,95494.6
2018-12-13T00:55:56.667Z,95488.9
2018-12-13T00:56:58.804Z,95489.7
2018-12-13T00:58:00.952Z,95492.3
2018-12-13T00:59:03.115Z,95482.6
2018-12-13T01:00:05.257Z,95487.4
2018-12-13T01:01:07.414Z,95486.6
2018-12-13T01:02:09.837Z,95483
2018-12-13T01:03:12.270Z,95489.3
2018-12-13T01:04:14.689Z,95486
2018-12-13T01:05:16.851Z,95495.1
2018-12-13T01:06:19.007Z,95488
2018-12-13T01:07:21.430Z,95494.4
2018-12-13T01:08:23.584Z,95483.2
2018-12-13T01:09:26.016Z,95491.8
2018-12-13T01:10:27.590Z,95488.9
2018-12-13T01:11:30.012Z,95487.2
2018-12-13T01:12:32.446Z,95488.2
2018-12-13T01:13:34.869Z,95491.8
2018-12-13T01:14:37.287Z,95482.9
2018-12-13T01:15:39.441Z,95484.8
2018-12-13T01:16:41.882Z,95482.5
2018-12-13T01:17:44.046Z,95490
2018-12-13T01:18:46.469Z,95492
2018-12-13T01:19:48.891Z,95484.5
2018-12-13T01:20:51.042Z,95486.6
2018-12-13T01:21:53.468Z,95483.9
2018-12-13T01:22:55.915Z,95490.3
2018-12-13T01:23:58.342Z,95488.9
2018-12-13T01:25:00.776Z,95486.2
2018-12-13T01:26:03.193Z,95484.3
2018-12-13T01:27:05.358Z,95480.4
2018-12-13T01:28:07.530Z,95484.4
2018-12-13T01:29:09.679Z,95481.4
2018-12-13T01:30:12.107Z,95477.5
2018-12-13T01:31:14.537Z,95483.3
2018-12-13T01:32:16.947Z,95482
2018-12-13T01:33:19.384Z,95482.6
2018-12-13T01:34:21.812Z,95480.8
2018-12-13T01:35:23.683Z,95477.9
2018-12-13T01:36:26.109Z,95481
2018-12-13T01:37:28.541Z,95479.6
2018-12-13T01:38:30.699Z,95477.9
2018-12-13T01:39:33.131Z,95476.6
2018-12-13T01:40:34.990Z,95474.6
2018-12-13T01:41:37.125Z,95471.7
2018-12-13T01:42:39.293Z,95475.2
2018-12-13T01:43:41.712Z,95473.9
2018-12-13T01:44:43.993Z,95469.2
2018-12-13T01:45:46.257Z,95470.6
2018-12-13T01:46:48.676Z,95473.4
2018-12-13T01:47:50.836Z,95465.7
2018-12-13T01:48:52.977Z,95470
2018-12-13T01:49:55.404Z,95460
2018-12-13T01:50:57.826Z,95463.1
2018-12-13T01:51:59.702Z,95462.7
2018-12-13T01:53:01.877Z,95462.5
2018-12-13T01:54:04.012Z,95463.4
2018-12-13T01:55:06.442Z,95457.8
2018-12-13T01:56:08.881Z,95457
2018-12-13T01:57:11.293Z,95461
2018-12-13T01:58:13.437Z,95456
2018-12-13T01:59:15.584Z,95453.9
2018-12-13T02:00:17.724Z,95453.6
2018-12-13T02:01:19.873Z,95454.3
2018-12-13T02:02:22.288Z,95453.9
2018-12-13T02:03:24.180Z,95452
2018-12-13T02:04:26.353Z,95447.8
2018-12-13T02:05:28.784Z,95451.7
2018-12-13T02:06:30.932Z,95446.5
2018-12-13T02:07:33.101Z,95444.2
2018-12-13T02:08:35.228Z,95440.1
2018-12-13T02:09:37.649Z,95437.4
2018-12-13T02:10:39.792Z,95437.4
2018-12-13T02:11:41.955Z,95439.3
2018-12-13T02:12:44.106Z,95437
2018-12-13T02:13:46.531Z,95437.4
2018-12-13T02:14:48.694Z,95432.5
2018-12-13T02:15:51.119Z,95440.3
2018-12-13T02:16:53.555Z,95437.6
2018-12-13T02:17:56.037Z,95439.4
2018-12-13T02:18:58.481Z,95435.1
2018-12-13T02:20:00.384Z,95438.6
2018-12-13T02:21:02.805Z,95433.6
2018-12-13T02:22:05.237Z,95436.3
2018-12-13T02:23:07.113Z,95435.8
2018-12-13T02:24:09.345Z,95435.9
2018-12-13T02:25:11.761Z,95438.9
2018-12-13T02:26:14.198Z,95441.7
2018-12-13T02:27:16.635Z,95437.4
2018-12-13T02:28:18.789Z,95437.5
2018-12-13T02:29:20.946Z,95433.6
2018-12-13T02:30:22.834Z,95432.9
2018-12-13T02:31:25.261Z,95437.4
2018-12-13T02:32:27.390Z,95432.9
2018-12-13T02:33:29.522Z,95436
2018-12-13T02:34:31.939Z,95435.5
2018-12-13T02:35:34.101Z,95436.4
2018-12-13T02:36:36.248Z,95428.4
2018-12-13T02:37:38.700Z,95428.1
2018-12-13T02:38:40.863Z,95432.2
2018-12-13T02:39:43.283Z,95426
2018-12-13T02:40:45.694Z,95428.4
2018-12-13T02:41:48.121Z,95427.7
2018-12-13T02:42:50.270Z,95428.6
2018-12-13T02:43:52.712Z,95429.1
2018-12-13T02:44:54.872Z,95423.9
2018-12-13T02:45:57.035Z,95423.3
2018-12-13T02:46:59.464Z,95418.4
2018-12-13T02:48:01.617Z,95419.7
2018-12-13T02:49:04.040Z,95417.5
2018-12-13T02:50:06.208Z,95421.4
2018-12-13T02:51:08.143Z,95414.7
2018-12-13T02:52:10.566Z,95417.3
2018-12-13T02:53:12.993Z,95417.1
2018-12-13T02:54:15.420Z,95417.9
2018-12-13T02:55:17.848Z,95416.8
2018-12-13T02:56:19.992Z,95419.2
2018-12-13T02:57:22.112Z,95418
2018-12-13T02:58:24.541Z,95418.9
2018-12-13T02:59:26.972Z,95421.2
2018-12-13T03:00:29.439Z,95417.5
2018-12-13T03:01:31.600Z,95413.6
2018-12-13T03:02:34.022Z,95416.6
2018-12-13T03:03:36.174Z,95411.1
2018-12-13T03:04:38.335Z,95414.1
2018-12-13T03:05:39.919Z,95414.3
2018-12-13T03:06:41.510Z,95418.3
2018-12-13T03:07:43.945Z,95419.9
2018-12-13T03:08:45.809Z,95414
2018-12-13T03:09:47.936Z,95412.7
2018-12-13T03:10:50.090Z,95413.4
2018-12-13T03:11:52.577Z,95412.7
2018-12-13T03:12:55.001Z,95414.6
2018-12-13T03:13:57.160Z,95411.6
2018-12-13T03:14:58.743Z,95413.5
2018-12-13T03:16:00.349Z,95408.4
2018-12-13T03:17:02.777Z,95403.1
2018-12-13T03:18:04.923Z,95407.9
2018-12-13T03:19:07.084Z,95410
2018-12-13T03:20:09.524Z,95412.1
2018-12-13T03:21:11.943Z,95407.3
2018-12-13T03:22:14.382Z,95405.4
2018-12-13T03:23:16.815Z,95412.8
2018-12-13T03:24:18.960Z,95409.2
2018-12-13T03:25:21.143Z,95405.9
2018-12-13T03:26:23.573Z,95409.8
2018-12-13T03:27:26.012Z,95408.5
2018-12-13T03:28:28.446Z,95405.2
2018-12-13T03:29:30.592Z,95406.2
2018-12-13T03:30:33.028Z,95403.5
2018-12-13T03:31:35.584Z,95404.7
2018-12-13T03:32:37.535Z,95403.3
2018-12-13T03:33:39.690Z,95394.5
2018-12-13T03:34:41.840Z,95399.1
2018-12-13T03:35:44.263Z,95396.1
2018-12-13T03:36:46.677Z,95392.6
2018-12-13T03:37:48.826Z,95395.5
2018-12-13T03:38:50.970Z,95390.7
2018-12-13T03:39:53.124Z,95391.9
2018-12-13T03:40:55.310Z,95389.4
2018-12-13T03:41:57.499Z,95389.9
2018-12-13T03:42:59.656Z,95388
2018-12-13T03:44:01.846Z,95386.2
2018-12-13T03:45:04.273Z,95386.4
2018-12-13T03:46:06.142Z,95383.4
2018-12-13T03:47:08.603Z,95386.8
2018-12-13T03:48:11.029Z,95386.7
2018-12-13T03:49:13.456Z,95385.6
2018-12-13T03:50:15.878Z,95384.7
2018-12-13T03:51:18.301Z,95386.7
2018-12-13T03:52:20.193Z,95380.3
2018-12-13T03:53:22.362Z,95381.8
2018-12-13T03:54:24.794Z,95382.2
2018-12-13T03:55:27.293Z,95377
2018-12-13T03:56:29.424Z,95376.8
2018-12-13T03:57:31.843Z,95377.3
2018-12-13T03:58:33.994Z,95377
2018-12-13T03:59:36.149Z,95378.3
2018-12-13T04:00:38.587Z,95376.8
2018-12-13T04:01:41.009Z,95373.2
2018-12-13T04:02:43.157Z,95372.5
2018-12-13T04:03:45.300Z,95370.1
2018-12-13T04:04:47.442Z,95373.5
2018-12-13T04:05:49.603Z,95371.4
2018-12-13T04:06:51.499Z,95371.5
2018-12-13T04:07:53.932Z,95362.2
2018-12-13T04:08:56.067Z,95359.8
2018-12-13T04:09:58.228Z,95364
2018-12-13T04:11:00.363Z,95361.1
2018-12-13T04:12:02.796Z,95363.6
2018-12-13T04:13:05.226Z,95358.6
2018-12-13T04:14:07.381Z,95361.1
2018-12-13T04:15:09.803Z,95356.4
2018-12-13T04:16:11.977Z,95355.1
2018-12-13T04:17:14.393Z,95352.6
2018-12-13T04:18:16.815Z,95354.3
2018-12-13T04:19:18.969Z,95349.4
2018-12-13T04:20:21.118Z,95347.8
2018-12-13T04:21:23.557Z,95344.4
2018-12-13T04:22:25.988Z,95347.1
2018-12-13T04:23:28.115Z,95352.4
2018-12-13T04:24:30.561Z,95342
2018-12-13T04:25:33.047Z,95345.5
2018-12-13T04:26:35.488Z,95340.4
2018-12-13T04:27:37.911Z,95340.9
2018-12-13T04:28:40.065Z,95344
2018-12-13T04:29:42.219Z,95340.7
2018-12-13T04:30:44.645Z,95343.7
2018-12-13T04:31:47.062Z,95340.1
2018-12-13T04:32:49.480Z,95343.4
2018-12-13T04:33:51.933Z,95344
2018-12-13T04:34:54.339Z,95343.8
2018-12-13T04:35:56.764Z,95337.6
2018-12-13T04:36:59.225Z,95341.3
2018-12-13T04:38:01.671Z,95337.9
2018-12-13T04:39:04.088Z,95338.6
2018-12-13T04:40:06.239Z,95335.1
2018-12-13T04:41:08.656Z,95338.6
2018-12-13T04:42:10.813Z,95336.4
2018-12-13T04:43:13.247Z,95331.3
2018-12-13T04:44:15.132Z,95333.4
2018-12-13T04:45:17.558Z,95331.4
2018-12-13T04:46:19.990Z,95335.5
2018-12-13T04:47:22.149Z,95337.3
2018-12-13T04:48:24.281Z,95338.3
2018-12-13T04:49:26.703Z,95330.7
2018-12-13T04:50:28.853Z,95331.6
2018-12-13T04:51:30.982Z,95329.6
2018-12-13T04:52:33.133Z,95328.4
2018-12-13T04:53:35.555Z,95327.2
2018-12-13T04:54:37.985Z,95324.1
2018-12-13T04:55:40.418Z,95323.6
2018-12-13T04:56:42.851Z,95325.7
2018-12-13T04:57:44.707Z,95327.1
2018-12-13T04:58:47.131Z,95324.2
2018-12-13T04:59:49.551Z,95325.2
2018-12-13T05:00:51.701Z,95318
2018-12-13T05:01:53.861Z,95315.2
2018-12-13T05:02:56.024Z,95314
2018-12-13T05:03:58.451Z,95317.9
2018-12-13T05:05:00.593Z,95314.2
2018-12-13T05:06:02.445Z,95315.4
2018-12-13T05:07:04.603Z,95308.3
2018-12-13T05:08:06.751Z,95311.8
2018-12-13T05:09:09.170Z,95311.7
2018-12-13T05:10:11.053Z,95311.7
2018-12-13T05:11:13.473Z,95313.3
2018-12-13T05:12:15.607Z,95306
2018-12-13T05:13:18.043Z,95305.6
2018-12-13T05:14:20.172Z,95304.5
2018-12-13T05:15:22.597Z,95302.5
2018-12-13T05:16:24.761Z,95302.9
2018-12-13T05:17:27.196Z,95304.8
2018-12-13T05:18:29.341Z,95305.1
2018-12-13T05:19:31.769Z,95305.1
2018-12-13T05:20:34.191Z,95304.8
2018-12-13T05:21:36.371Z,95306.9
2018-12-13T05:22:38.797Z,95298.3
2018-12-13T05:23:40.675Z,95300.2
2018-12-13T05:24:43.099Z,95304.1
2018-12-13T05:25:45.259Z,95302.8
2018-12-13T05:26:47.691Z,95303.6
2018-12-13T05:27:50.117Z,95300.7
2018-12-13T05:28:52.036Z,95300.1
2018-12-13T05:29:54.194Z,95297.1
2018-12-13T05:30:56.630Z,95292.6
2018-12-13T05:31:58.610Z,95291.3
2018-12-13T05:33:01.088Z,95295.4
2018-12-13T05:34:02.951Z,95291.9
2018-12-13T05:35:05.102Z,95292.5
2018-12-13T05:36:07.541Z,95289.6
2018-12-13T05:37:09.977Z,95293.9
2018-12-13T05:38:12.127Z,95292
2018-12-13T05:39:14.295Z,95294.1
2018-12-13T05:40:17.515Z,95291.5
2018-12-13T05:41:19.742Z,95288.7
2018-12-13T05:42:22.185Z,95288.6
2018-12-13T05:43:25.858Z,95281.4
2018-12-13T05:44:27.811Z,95281.7
2018-12-13T05:45:30.231Z,95280.3
2018-12-13T05:46:32.399Z,95282.7
2018-12-13T05:47:34.819Z,95280.4
2018-12-13T05:48:37.259Z,95282
2018-12-13T05:49:39.480Z,95282.5
2018-12-13T05:50:41.901Z,95284.5
2018-12-13T05:51:44.321Z,95283.2
2018-12-13T05:52:46.754Z,95289.1
2018-12-13T05:53:48.915Z,95287.2
2018-12-13T05:54:51.340Z,95283.2
2018-12-13T05:55:53.758Z,95286
2018-12-13T05:56:56.196Z,95285.9
2018-12-13T05:57:58.621Z,95283.4
2018-12-13T05:59:00.771Z,95284.8
2018-12-13T06:00:03.199Z,95285.1
2018-12-13T06:01:05.360Z,95280.6
2018-12-13T06:02:07.794Z,95284
2018-12-13T06:03:10.216Z,95277.5
2018-12-13T06:04:12.382Z,95277.8
2018-12-13T06:05:14.809Z,95277.6
2018-12-13T06:06:16.697Z,95274.1
2018-12-13T06:07:18.833Z,95272.8
2018-12-13T06:08:20.991Z,95277.6
2018-12-13T06:09:23.434Z,95270.7
2018-12-13T06:10:25.567Z,95274.8
2018-12-13T06:11:27.695Z,95270.2
2018-12-13T06:12:30.142Z,95270
2018-12-13T06:13:32.572Z,95270.4
2018-12-13T06:14:34.731Z,95273.1
2018-12-13T06:15:37.162Z,95274.7
2018-12-13T06:16:39.588Z,95274.7
2018-12-13T06:17:42.450Z,95273.3
2018-12-13T06:18:44.598Z,95274.8
2018-12-13T06:19:47.018Z,95274.7
2018-12-13T06:20:49.456Z,95276.3
2018-12-13T06:21:51.873Z,95274.7
2018-12-13T06:22:54.320Z,95274.2
2018-12-13T06:23:56.478Z,95272.8
2018-12-13T06:24:58.622Z,95272.8
2018-12-13T06:26:01.050Z,95271.7
2018-12-13T06:27:03.474Z,95275.9
2018-12-13T06:28:05.892Z,95270
2018-12-13T06:29:08.320Z,95273.3
2018-12-13T06:30:10.751Z,95276.3
2018-12-13T06:31:13.180Z,95270
2018-12-13T06:32:15.610Z,95270.1
2018-12-13T06:33:24.648Z,95272.6
2018-12-13T06:34:24.458Z,95271.8
2018-12-13T06:35:26.664Z,95275.3
2018-12-13T06:36:28.795Z,95274.9
2018-12-13T06:37:31.216Z,95279.5
2018-12-13T06:38:33.365Z,95272.9
2018-12-13T06:39:35.798Z,95277.5
2018-12-13T06:40:37.946Z,95276.6
2018-12-13T06:41:40.070Z,95281.7
2018-12-13T06:42:42.502Z,95273
2018-12-13T06:43:44.932Z,95280.2
2018-12-13T06:44:47.094Z,95279.9
2018-12-13T06:45:49.252Z,95278.8
2018-12-13T06:46:51.416Z,95280.4
2018-12-13T06:47:53.840Z,95275.2
2018-12-13T06:48:56.002Z,95274.9
2018-12-13T06:49:58.472Z,95281.9
2018-12-13T06:51:00.906Z,95278.8
2018-12-13T06:52:03.336Z,95278.3
2018-12-13T06:53:05.481Z,95279.9
2018-12-13T06:54:07.619Z,95280.8
2018-12-13T06:55:10.052Z,95278.5
2018-12-13T06:56:12.473Z,95281.5
2018-12-13T06:57:14.635Z,95282
2018-12-13T06:58:17.058Z,95286.9
2018-12-13T06:59:19.492Z,95287.3
2018-12-13T07:00:21.932Z,95284.8
2018-12-13T07:01:24.383Z,95286.3
2018-12-13T07:02:26.808Z,95288.1
2018-12-13T07:03:28.979Z,95283.1
2018-12-13T07:04:31.413Z,95280.7
2018-12-13T07:05:33.559Z,95284.3
2018-12-13T07:06:35.990Z,95286.3
2018-12-13T07:07:38.141Z,95289.3
2018-12-13T07:08:40.295Z,95288.6
2018-12-13T07:09:42.452Z,95287.6
2018-12-13T07:10:44.878Z,95283.4
2018-12-13T07:11:47.313Z,95286.4
2018-12-13T07:12:49.745Z,95281.9
2018-12-13T07:13:51.641Z,95286.7
2018-12-13T07:14:54.073Z,95282.9
2018-12-13T07:15:56.241Z,95283.3
2018-12-13T07:16:58.118Z,95287.1
2018-12-13T07:18:00.542Z,95281.6
2018-12-13T07:19:02.701Z,95287.6
2018-12-13T07:20:05.131Z,95286.9
2018-12-13T07:21:07.291Z,95287.4
2018-12-13T07:22:09.760Z,95290.5
2018-12-13T07:23:11.920Z,95284.8
2018-12-13T07:24:13.779Z,95287.2
2018-12-13T07:25:16.212Z,95289.2
2018-12-13T07:26:18.375Z,95291
2018-12-13T07:27:20.535Z,95286
2018-12-13T07:28:22.962Z,95288.4
2018-12-13T07:29:25.124Z,95284.8
2018-12-13T07:30:27.275Z,95287.5
2018-12-13T07:31:29.421Z,95284.5
2018-12-13T07:32:31.841Z,95281.7
2018-12-13T07:33:34.013Z,95282.3
2018-12-13T07:34:36.453Z,95282.3
2018-12-13T07:35:38.871Z,95277.5
2018-12-13T07:36:41.346Z,95279.9
2018-12-13T07:37:43.488Z,95278.5
2018-12-13T07:38:45.916Z,95275.7
2018-12-13T07:39:47.796Z,95272.6
2018-12-13T07:40:50.237Z,95278.3
2018-12-13T07:41:52.409Z,95276.6
2018-12-13T07:42:54.560Z,95275.2
2018-12-13T07:43:56.435Z,95274.7
2018-12-13T07:44:58.850Z,95274.8
2018-12-13T07:46:01.102Z,95271.4
2018-12-13T07:47:03.531Z,95271.8
2018-12-13T07:48:05.672Z,95268.7
2018-12-13T07:49:07.827Z,95273.1
2018-12-13T07:50:09.999Z,95272
2018-12-13T07:51:12.432Z,95269.7
2018-12-13T07:52:14.861Z,95272.6
2018-12-13T07:53:17.003Z,95271.7
2018-12-13T07:54:19.424Z,95275.5
2018-12-13T07:55:21.276Z,95270.1
2018-12-13T07:56:23.438Z,95271.8
2018-12-13T07:57:25.882Z,95269.8
2018-12-13T07:58:28.292Z,95267.9
2018-12-13T07:59:30.450Z,95271.2
2018-12-13T08:00:32.880Z,95265.6
2018-12-13T08:01:35.034Z,95268.7
2018-12-13T08:02:37.191Z,95267.5
2018-12-13T08:03:39.343Z,95269.8
2018-12-13T08:04:41.489Z,95270.7
2018-12-13T08:05:43.656Z,95269.6
2018-12-13T08:06:46.083Z,95265.3
2018-12-13T08:07:48.514Z,95268.3
2018-12-13T08:08:50.425Z,95263.4
2018-12-13T08:09:52.587Z,95269.3
2018-12-13T08:10:55.009Z,95267
2018-12-13T08:11:57.451Z,95265.3
2018-12-13T08:12:59.883Z,95264.9
2018-12-13T08:14:02.310Z,95269
2018-12-13T08:15:04.214Z,95266
2018-12-13T08:16:06.661Z,95267.3
2018-12-13T08:17:08.827Z,95266.5
2018-12-13T08:18:10.984Z,95271.1
2018-12-13T08:19:13.405Z,95265.7
2018-12-13T08:20:15.604Z,95261.7
2018-12-13T08:21:17.482Z,95265.4
2018-12-13T08:22:19.911Z,95262.2
2018-12-13T08:23:22.342Z,95265.7
2018-12-13T08:24:24.512Z,95263
2018-12-13T08:25:26.952Z,95265.6
2018-12-13T08:26:29.386Z,95265.5
2018-12-13T08:27:31.809Z,95261.4
2018-12-13T08:28:34.229Z,95263
2018-12-13T08:29:36.649Z,95271.5
2018-12-13T08:30:39.073Z,95263.4
2018-12-13T08:31:41.493Z,95262.4
2018-12-13T08:32:43.924Z,95261.8
2018-12-13T08:33:46.351Z,95264.1
2018-12-13T08:34:48.771Z,95261
2018-12-13T08:35:50.650Z,95261.2
2018-12-13T08:36:53.083Z,95262.8
2018-12-13T08:37:54.979Z,95256
2018-12-13T08:38:57.419Z,95261
2018-12-13T08:39:59.003Z,95260.2
2018-12-13T08:41:01.435Z,95263.1
2018-12-13T08:42:03.581Z,95261.6
2018-12-13T08:43:06.025Z,95253.3
2018-12-13T08:44:08.476Z,95252.9
2018-12-13T08:45:10.629Z,95253.7
2018-12-13T08:46:13.065Z,95254.1
2018-12-13T08:47:15.484Z,95246.8
2018-12-13T08:48:17.645Z,95251.6
2018-12-13T08:49:20.067Z,95249.3
2018-12-13T08:50:22.227Z,95246.4
2018-12-13T08:51:24.374Z,95246.5
2018-12-13T08:52:26.522Z,95248.6
2018-12-13T08:53:28.961Z,95243.9
2018-12-13T08:54:31.368Z,95242.9
2018-12-13T08:55:33.793Z,95239.8
2018-12-13T08:56:36.229Z,95237.8
2018-12-13T08:57:38.660Z,95234.6
2018-12-13T08:58:40.784Z,95238.1
2018-12-13T08:59:43.211Z,95237
2018-12-13T09:00:45.358Z,95236.2
2018-12-13T09:01:47.783Z,95233.9
2018-12-13T09:02:50.204Z,95231.4
2018-12-13T09:03:52.624Z,95235.7
2018-12-13T09:04:55.067Z,95233.3
2018-12-13T09:05:57.501Z,95234.1
2018-12-13T09:06:59.921Z,95233.7
2018-12-13T09:08:02.343Z,95233.1
2018-12-13T09:09:04.494Z,95227.8
2018-12-13T09:10:06.923Z,95230.1
2018-12-13T09:11:09.055Z,95230
2018-12-13T09:12:11.479Z,95233.5
2018-12-13T09:13:13.638Z,95231.1
2018-12-13T09:14:15.784Z,95228.2
2018-12-13T09:15:17.931Z,95229
2018-12-13T09:16:21.827Z,95229.2
2018-12-13T09:17:24.253Z,95228.6
2018-12-13T09:18:26.674Z,95228.8
2018-12-13T09:19:28.820Z,95233
2018-12-13T09:20:31.249Z,95229.6
2018-12-13T09:21:33.134Z,95230.5
2018-12-13T09:22:35.563Z,95230.9
2018-12-13T09:23:38.002Z,95229.3
2018-12-13T09:24:40.164Z,95229.4
2018-12-13T09:25:42.593Z,95234.2
2018-12-13T09:26:44.770Z,95226.9
2018-12-13T09:27:47.197Z,95235.3
2018-12-13T09:28:49.332Z,95230.4
2018-12-13T09:29:51.754Z,95230.4
2018-12-13T09:30:53.896Z,95232.1
2018-12-13T09:31:56.070Z,95231.6
2018-12-13T09:32:58.483Z,95229.1
2018-12-13T09:34:00.632Z,95230.9
2018-12-13T09:35:03.068Z,95230.2
2018-12-13T09:36:05.504Z,95231.7
2018-12-13T09:37:07.938Z,95229.1
2018-12-13T09:38:10.361Z,95227
2018-12-13T09:39:12.506Z,95228.3
2018-12-13T09:40:14.641Z,95225.5
2018-12-13T09:41:16.530Z,95228.4
2018-12-13T09:42:18.403Z,95228.9
2018-12-13T09:43:20.524Z,95225.7
2018-12-13T09:44:22.958Z,95229.4
2018-12-13T09:45:25.104Z,95225
2018-12-13T09:46:27.262Z,95224.4
2018-12-13T09:47:29.684Z,95225.9
2018-12-13T09:48:31.830Z,95223.2
2018-12-13T09:49:33.996Z,95225.9
2018-12-13T09:50:36.420Z,95224
2018-12-13T09:51:38.268Z,95224.6
2018-12-13T09:52:40.428Z,95225.5
2018-12-13T09:53:42.853Z,95224.5
2018-12-13T09:54:45.274Z,95219.4
2018-12-13T09:55:47.702Z,95218
2018-12-13T09:56:50.118Z,95216.4
2018-12-13T09:57:52.254Z,95212
2018-12-13T09:58:54.374Z,95212.4
2018-12-13T09:59:56.795Z,95215.6
2018-12-13T10:00:59.216Z,95212.7
2018-12-13T10:02:01.084Z,95211.4
2018-12-13T10:03:03.506Z,95209.8
2018-12-13T10:04:05.943Z,95212.8
2018-12-13T10:05:08.088Z,95208.5
2018-12-13T10:06:10.504Z,95201.2
2018-12-13T10:07:27.593Z,95204.1
2018-12-13T10:08:30.025Z,95201.2
2018-12-13T10:09:32.452Z,95205.2
2018-12-13T10:10:34.865Z,95201
2018-12-13T10:11:37.290Z,95197.4
2018-12-13T10:12:39.715Z,95196.7
2018-12-13T10:13:41.862Z,95196.6
2018-12-13T10:14:44.011Z,95198.7
2018-12-13T10:15:46.445Z,95200.3
2018-12-13T10:16:48.877Z,95194
2018-12-13T10:17:51.031Z,95195.2
2018-12-13T10:18:53.173Z,95191.1
2018-12-13T10:19:55.338Z,95193.6
2018-12-13T10:20:57.228Z,95190.5
2018-12-13T10:21:59.650Z,95190.2
2018-12-13T10:23:01.789Z,95188.8
2018-12-13T10:24:03.938Z,95190.5
2018-12-13T10:25:06.354Z,95188.3
2018-12-13T10:26:08.780Z,95184.6
2018-12-13T10:27:10.925Z,95190.9
2018-12-13T10:28:13.094Z,95187.6
2018-12-13T10:29:16.689Z,95186.5
2018-12-13T10:30:18.845Z,95185.3
2018-12-13T10:31:21.280Z,95184.5
2018-12-13T10:32:23.488Z,95182
2018-12-13T10:33:25.385Z,95176.1
2018-12-13T10:34:27.802Z,95186.5
2018-12-13T10:35:30.226Z,95180.6
2018-12-13T10:36:32.651Z,95182.6
2018-12-13T10:37:34.844Z,95182.4
2018-12-13T10:38:37.285Z,95182.7
2018-12-13T10:39:39.714Z,95190.1
2018-12-13T10:40:42.136Z,95183.3
2018-12-13T10:41:44.588Z,95184.2
2018-12-13T10:42:47.023Z,95184.8
2018-12-13T10:43:49.454Z,95182.9
2018-12-13T10:44:51.898Z,95179.1
2018-12-13T10:45:54.053Z,95178.9
2018-12-13T10:46:56.486Z,95177.6
2018-12-13T10:47:58.901Z,95177.5
2018-12-13T10:49:00.829Z,95175.6
2018-12-13T10:50:02.696Z,95175.5
2018-12-13T10:51:04.853Z,95174.4
2018-12-13T10:52:07.281Z,95176.6
2018-12-13T10:53:09.477Z,95170.9
2018-12-13T10:54:11.910Z,95171.9
2018-12-13T10:55:14.384Z,95175.3
2018-12-13T10:56:16.810Z,95171.5
2018-12-13T10:57:18.955Z,95168.9
2018-12-13T10:58:21.378Z,95168.8
2018-12-13T10:59:23.512Z,95165.9
2018-12-13T11:00:25.660Z,95166.2
2018-12-13T11:01:28.082Z,95166.5
2018-12-13T11:02:30.529Z,95165.8
2018-12-13T11:03:32.962Z,95168.7
2018-12-13T11:04:35.387Z,95164.2
2018-12-13T11:05:37.813Z,95165.4
2018-12-13T11:06:40.236Z,95165.4
2018-12-13T11:07:42.421Z,95164.6
2018-12-13T11:08:44.873Z,95164.1
2018-12-13T11:09:47.325Z,95163.4
2018-12-13T11:10:49.773Z,95165.5
2018-12-13T11:11:52.193Z,95164.4
2018-12-13T11:12:54.624Z,95159.3
2018-12-13T11:13:57.060Z,95161
2018-12-13T11:14:59.485Z,95162.2
2018-12-13T11:16:01.917Z,95160
2018-12-13T11:17:04.355Z,95159.2
2018-12-13T11:18:06.519Z,95158.9
2018-12-13T11:19:08.952Z,95158.6
2018-12-13T11:20:11.387Z,95154.8
2018-12-13T11:22:18.789Z,95155.9
2018-12-13T11:23:21.205Z,95156.7
2018-12-13T11:24:23.637Z,95158.4
2018-12-13T11:25:25.785Z,95151.8
2018-12-13T11:26:28.207Z,95150.9
2018-12-13T11:27:30.637Z,95143.2
2018-12-13T11:28:33.060Z,95149
2018-12-13T11:29:35.542Z,95149.8
2018-12-13T11:30:37.967Z,95143.1
2018-12-13T11:31:40.113Z,95144.9
2018-12-13T11:32:41.989Z,95150.6
2018-12-13T11:33:44.154Z,95150
2018-12-13T11:34:46.316Z,95150.4
2018-12-13T11:35:48.748Z,95153.2
2018-12-13T11:36:50.635Z,95151
2018-12-13T11:37:53.055Z,95155.6
2018-12-13T11:38:55.479Z,95156.6
2018-12-13T11:39:57.686Z,95153.2
2018-12-13T11:40:59.841Z,95152.6
2018-12-13T11:42:01.997Z,95153.8
2018-12-13T11:43:04.470Z,95149.9
2018-12-13T11:44:06.903Z,95154.8
2018-12-13T11:45:09.338Z,95151.8
2018-12-13T11:46:11.764Z,95147.7
2018-12-13T11:47:14.183Z,95151.3
2018-12-13T11:48:16.612Z,95146.5
2018-12-13T11:49:19.036Z,95146.6
2018-12-13T11:50:21.462Z,95147.1
2018-12-13T11:51:23.890Z,95141.9
2018-12-13T11:52:26.330Z,95146.8
2018-12-13T11:53:28.761Z,95143.4
2018-12-13T11:54:30.912Z,95144
2018-12-13T11:55:33.335Z,95150.1
2018-12-13T11:56:35.214Z,95143.1
2018-12-13T11:57:37.651Z,95141.4
2018-12-13T11:58:39.813Z,95141.3
2018-12-13T11:59:42.284Z,95139.8
2018-12-13T12:00:44.706Z,95135.8
2018-12-13T12:01:47.136Z,95135.1
2018-12-13T12:02:49.290Z,95139.8
2018-12-13T12:03:51.716Z,95142.3
2018-12-13T12:04:54.134Z,95135.9
2018-12-13T12:05:56.558Z,95139.5
2018-12-13T12:06:58.973Z,95144.4
2018-12-13T12:08:01.400Z,95144.8
2018-12-13T12:09:03.838Z,95138.5
2018-12-13T12:10:06.293Z,95142.9
2018-12-13T12:11:08.704Z,95135.8
2018-12-13T12:12:11.132Z,95139.8
2018-12-13T12:13:13.565Z,95141.9
2018-12-13T12:14:15.984Z,95136.7
2018-12-13T12:15:18.132Z,95138.2
2018-12-13T12:16:20.274Z,95144
2018-12-13T12:17:22.431Z,95135
2018-12-13T12:18:24.870Z,95138
2018-12-13T12:19:27.036Z,95128.8
2018-12-13T12:20:29.184Z,95128
2018-12-13T12:21:31.624Z,95138
2018-12-13T12:22:34.054Z,95133.9
2018-12-13T12:23:36.494Z,95134.2
2018-12-13T12:24:38.932Z,95129.8
2018-12-13T12:25:40.848Z,95136.7
2018-12-13T12:26:43.279Z,95134.5
2018-12-13T12:27:45.699Z,95134.3
2018-12-13T12:28:47.842Z,95131.1
2018-12-13T12:29:50.021Z,95127.8
2018-12-13T12:30:52.452Z,95127.5
2018-12-13T12:31:54.905Z,95121.4
2018-12-13T12:32:57.321Z,95121.5
2018-12-13T12:33:59.754Z,95127.8
2018-12-13T12:35:01.903Z,95126.8
2018-12-13T12:36:04.332Z,95130.3
2018-12-13T12:37:06.505Z,95133.6
2018-12-13T12:38:08.640Z,95124
2018-12-13T12:39:11.057Z,95138.8
2018-12-13T12:40:13.491Z,95131.4